Time;durP1;ratioP1;P1;durP2;ratioP2;P2;SDS_P1;SDS_P2;PMS_P1;PMS_P2;Temp;Humidity;BMP_temperature;BMP_pressure;BME280_temperature;BME280_humidity;BME280_pressure;Samples;Min_cycle;Max_cycle;Signal;HPM_P1;HPM_P2
2023/10/06 00:00:10;;;;;;;10.18;6.10;;;;;;;10.15;80.48;99299.69;5070529;28;20477;-69
2023/10/06 00:02:36;;;;;;;10.82;5.57;;;;;;;10.11;80.74;99300.31;5054769;28;20193;-72
2023/10/06 00:05:01;;;;;;;13.73;7.18;;;;;;;10.09;80.79;99297.00;5071651;28;20485;-71
2023/10/06 00:07:26;;;;;;;11.55;5.85;;;;;;;10.03;80.72;99303.25;5033325;28;20037;-72
2023/10/06 00:09:55;;;;;;;10.98;5.95;;;;;;;10.03;81.09;99298.72;5035714;28;20024;-72
2023/10/06 00:12:21;;;;;;;14.52;7.20;;;;;;;9.99;81.36;99294.78;5053425;28;20036;-73
2023/10/06 00:14:48;;;;;;;12.13;5.97;;;;;;;9.98;81.16;99292.31;5071566;28;20025;-72
2023/10/06 00:17:18;;;;;;;11.95;6.43;;;;;;;9.95;81.06;99292.72;5049816;28;20052;-71
2023/10/06 00:19:44;;;;;;;9.75;6.63;;;;;;;10.04;81.00;99311.09;5045867;28;20028;-72
2023/10/06 00:22:18;;;;;;;9.75;6.22;;;;;;;9.96;81.12;99299.78;5053197;28;20511;-71
2023/10/06 00:24:50;;;;;;;12.73;6.40;;;;;;;10.00;81.19;99304.50;5070275;28;20111;-75
2023/10/06 00:27:29;;;;;;;10.40;5.97;;;;;;;10.04;81.20;99307.59;5024228;28;20090;-73
2023/10/06 00:29:55;;;;;;;10.80;5.68;;;;;;;10.02;81.45;99301.59;5037495;28;20496;-73
2023/10/06 00:32:22;;;;;;;13.95;5.75;;;;;;;9.99;81.20;99307.44;5053423;28;20040;-74
2023/10/06 00:34:48;;;;;;;7.63;5.80;;;;;;;9.98;81.07;99300.38;5053244;28;20029;-73
2023/10/06 00:37:15;;;;;;;11.57;6.10;;;;;;;9.98;80.76;99311.97;5052951;28;20020;-73
2023/10/06 00:39:42;;;;;;;11.30;6.13;;;;;;;9.84;81.32;99298.78;5035800;28;20040;-72
2023/10/06 00:42:08;;;;;;;12.43;6.40;;;;;;;9.91;81.25;99310.34;5071274;28;20029;-72
2023/10/06 00:44:34;;;;;;;8.63;5.88;;;;;;;9.84;81.19;99309.53;5053110;28;20044;-72
2023/10/06 00:47:05;;;;;;;11.23;6.75;;;;;;;9.65;81.04;99284.34;5036366;28;20039;-72
2023/10/06 00:49:32;;;;;;;8.02;5.65;;;;;;;9.72;81.08;99296.75;5067330;28;20041;-71
2023/10/06 00:51:59;;;;;;;9.05;6.15;;;;;;;9.65;80.90;99285.19;5064104;28;20016;-71
2023/10/06 00:54:25;;;;;;;12.52;6.80;;;;;;;9.79;81.54;99301.28;5057521;28;20047;-72
2023/10/06 00:57:08;;;;;;;9.38;6.88;;;;;;;9.77;81.17;99301.50;5053557;28;20396;-72
2023/10/06 00:59:35;;;;;;;9.48;6.55;;;;;;;9.76;81.29;99291.75;5056487;28;20036;-73
2023/10/06 01:02:01;;;;;;;11.80;7.10;;;;;;;9.62;81.77;99280.22;5075043;28;20107;-71
2023/10/06 01:04:26;;;;;;;11.13;7.15;;;;;;;9.64;81.72;99280.84;5053653;28;20540;-72
2023/10/06 01:06:54;;;;;;;11.90;7.28;;;;;;;9.72;81.53;99294.06;5049391;28;20021;-73
2023/10/06 01:09:30;;;;;;;9.68;7.10;;;;;;;9.77;81.99;99292.59;5056792;28;20063;-74
2023/10/06 01:11:57;;;;;;;9.05;7.10;;;;;;;9.58;82.17;99265.56;5074663;28;20036;-71
2023/10/06 01:14:26;;;;;;;14.80;7.07;;;;;;;9.71;81.70;99284.34;5056809;28;20430;-71
2023/10/06 01:16:53;;;;;;;9.63;6.65;;;;;;;9.65;82.15;99274.44;5053170;28;20151;-72
2023/10/06 01:19:27;;;;;;;10.98;7.15;;;;;;;9.68;81.67;99279.38;5053487;28;20029;-71
2023/10/06 01:21:55;;;;;;;11.27;7.55;;;;;;;9.62;81.43;99288.28;5053285;28;20535;-70
2023/10/06 01:24:25;;;;;;;17.30;7.88;;;;;;;9.45;81.55;99262.09;5053344;28;20052;-70
2023/10/06 01:26:58;;;;;;;19.67;9.07;;;;;;;9.59;82.25;99286.00;5037323;28;20028;-71
2023/10/06 01:29:31;;;;;;;11.15;7.70;;;;;;;9.52;82.54;99285.22;5040719;28;20062;-71
2023/10/06 01:31:58;;;;;;;10.02;6.88;;;;;;;9.54;82.60;99276.94;5057087;28;20040;-71
2023/10/06 01:34:24;;;;;;;10.70;7.07;;;;;;;9.38;82.10;99262.06;5056376;28;20028;-71
2023/10/06 01:36:53;;;;;;;11.02;7.43;;;;;;;9.46;81.71;99274.47;5055933;28;20063;-71
2023/10/06 01:39:22;;;;;;;8.32;6.45;;;;;;;9.40;82.61;99265.41;5056566;28;20042;-71
2023/10/06 01:41:48;;;;;;;16.05;7.47;;;;;;;9.34;82.31;99271.59;5057868;28;20119;-71
2023/10/06 01:44:15;;;;;;;11.82;7.03;;;;;;;9.26;82.16;99258.41;5037335;28;20109;-71
2023/10/06 01:46:41;;;;;;;14.57;7.65;;;;;;;9.36;81.92;99279.47;5053390;28;20075;-71
2023/10/06 01:49:10;;;;;;;10.32;6.35;;;;;;;9.31;82.16;99280.09;5032210;28;20396;-71
2023/10/06 01:51:39;;;;;;;11.10;6.85;;;;;;;9.35;82.54;99284.03;5061615;28;20035;-71
2023/10/06 01:54:12;;;;;;;8.15;5.88;;;;;;;9.24;82.14;99257.75;5039704;28;20020;-70
2023/10/06 01:56:42;;;;;;;9.35;6.32;;;;;;;9.27;82.62;99254.66;5035987;28;20090;-71
2023/10/06 01:59:12;;;;;;;11.30;6.00;;;;;;;9.35;82.14;99259.84;5034527;28;20110;-71
2023/10/06 02:01:41;;;;;;;10.00;6.25;;;;;;;9.32;81.87;99262.94;5036246;28;20037;-71
2023/10/06 02:04:10;;;;;;;7.93;5.60;;;;;;;9.33;81.87;99269.97;5022756;28;20089;-71
2023/10/06 02:06:35;;;;;;;9.00;6.43;;;;;;;9.21;82.41;99252.84;5072374;28;20123;-71
2023/10/06 02:09:14;;;;;;;9.73;5.60;;;;;;;9.30;81.91;99265.00;5056363;28;20028;-71
2023/10/06 02:11:42;;;;;;;7.70;6.05;;;;;;;9.32;82.44;99268.31;5052713;28;20484;-69
2023/10/06 02:14:09;;;;;;;10.15;6.38;;;;;;;9.33;81.93;99264.59;5034138;28;20056;-71
2023/10/06 02:16:36;;;;;;;10.32;6.38;;;;;;;9.30;82.32;99259.63;5062367;28;20028;-70
2023/10/06 02:19:02;;;;;;;11.13;6.90;;;;;;;9.33;82.40;99259.22;5054356;28;20070;-71
2023/10/06 02:21:29;;;;;;;10.02;6.10;;;;;;;9.31;82.02;99253.19;5072514;28;20032;-70
2023/10/06 02:24:01;;;;;;;13.68;6.30;;;;;;;9.32;82.15;99248.66;5052365;28;20028;-70
2023/10/06 02:26:26;;;;;;;12.35;6.88;;;;;;;9.24;81.98;99241.63;5049927;28;20047;-71
2023/10/06 02:28:54;;;;;;;12.25;8.60;;;;;;;9.22;82.26;99238.34;5035853;28;20025;-70
2023/10/06 02:31:21;;;;;;;71.43;12.80;;;;;;;9.17;82.93;99240.81;5032645;28;20041;-71
2023/10/06 02:33:50;;;;;;;56.13;11.20;;;;;;;9.16;83.44;99247.25;5073535;28;20020;-73
2023/10/06 02:36:21;;;;;;;159.80;15.98;;;;;;;9.15;83.91;99253.66;5038911;28;20037;-73
2023/10/06 02:38:47;;;;;;;115.00;15.52;;;;;;;9.10;83.84;99258.84;5072870;28;20044;-73
2023/10/06 02:41:29;;;;;;;49.30;11.98;;;;;;;9.09;83.99;99254.50;5053137;28;20017;-73
2023/10/06 02:43:55;;;;;;;25.33;10.85;;;;;;;9.09;84.80;99257.19;5071882;28;20033;-73
2023/10/06 02:46:21;;;;;;;22.30;11.35;;;;;;;9.10;84.51;99263.38;5055602;28;20074;-73
2023/10/06 02:48:51;;;;;;;33.67;13.75;;;;;;;9.05;85.06;99262.13;5038884;28;20064;-73
2023/10/06 02:51:32;;;;;;;72.50;19.45;;;;;;;8.91;84.88;99243.56;5055386;28;20412;-72
2023/10/06 02:54:20;;;;;;;17.23;10.88;;;;;;;9.05;85.14;99264.81;5033471;28;20036;-72
2023/10/06 02:56:47;;;;;;;14.93;9.07;;;;;;;9.09;84.59;99267.09;5044020;28;20459;-72
2023/10/06 02:59:22;;;;;;;20.75;11.18;;;;;;;9.11;85.01;99265.84;5035029;28;20033;-73
2023/10/06 03:01:51;;;;;;;18.17;10.65;;;;;;;9.06;84.66;99262.97;5051970;28;20047;-73
2023/10/06 03:04:17;;;;;;;19.85;10.82;;;;;;;9.13;85.09;99269.16;5049781;28;20032;-71
2023/10/06 03:06:52;;;;;;;22.10;12.75;;;;;;;9.18;85.00;99272.06;5046047;28;20040;-70
2023/10/06 03:09:18;;;;;;;27.80;14.40;;;;;;;9.15;85.50;99267.09;5039694;28;20066;-71
2023/10/06 03:11:49;;;;;;;28.95;14.88;;;;;;;9.19;85.16;99272.88;5037490;28;20024;-71
2023/10/06 03:14:24;;;;;;;27.25;14.52;;;;;;;9.14;85.16;99261.94;5039374;28;20028;-70
2023/10/06 03:16:53;;;;;;;27.08;15.13;;;;;;;9.17;85.36;99265.00;5054403;28;20500;-70
2023/10/06 03:19:25;;;;;;;21.13;13.05;;;;;;;9.19;85.69;99273.72;5034950;28;20017;-70
2023/10/06 03:21:56;;;;;;;18.38;11.90;;;;;;;9.21;85.61;99277.03;5078785;28;20035;-71
2023/10/06 03:24:30;;;;;;;20.10;12.52;;;;;;;9.11;85.88;99249.75;5071516;28;20472;-71
2023/10/06 03:26:58;;;;;;;24.23;13.07;;;;;;;9.17;85.74;99275.75;5054626;28;20512;-70
2023/10/06 03:29:43;;;;;;;27.73;14.77;;;;;;;9.03;85.39;99263.41;5034932;28;20032;-73
2023/10/06 03:32:22;;;;;;;22.90;14.55;;;;;;;9.13;85.45;99274.53;5055815;28;20059;-73
2023/10/06 03:34:47;;;;;;;21.30;14.02;;;;;;;9.11;85.54;99271.22;5054815;28;20037;-72
2023/10/06 03:37:16;;;;;;;25.20;14.65;;;;;;;9.16;85.22;99274.13;5054414;28;20021;-71
2023/10/06 03:39:50;;;;;;;26.52;15.90;;;;;;;9.11;85.33;99268.53;5054845;28;20035;-72
2023/10/06 03:42:19;;;;;;;30.80;17.80;;;;;;;9.23;85.69;99295.63;5054368;28;20639;-71
2023/10/06 03:45:04;;;;;;;24.35;16.17;;;;;;;9.14;85.88;99281.56;5055451;28;20036;-71
2023/10/06 03:47:30;;;;;;;30.85;17.20;;;;;;;9.17;85.76;99281.13;5040826;28;20040;-72
2023/10/06 03:49:55;;;;;;;25.77;16.17;;;;;;;9.22;85.71;99284.03;5026153;28;20016;-72
2023/10/06 03:52:21;;;;;;;24.45;15.10;;;;;;;9.11;85.83;99271.22;5038545;28;20045;-71
2023/10/06 03:54:48;;;;;;;17.67;12.90;;;;;;;9.11;85.52;99276.59;5040980;28;20021;-71
2023/10/06 03:57:15;;;;;;;24.85;14.80;;;;;;;9.07;85.41;99264.63;5057759;28;20036;-73
2023/10/06 03:59:44;;;;;;;23.30;14.50;;;;;;;9.12;86.00;99278.28;5055799;28;20096;-74
2023/10/06 04:02:10;;;;;;;24.00;14.70;;;;;;;9.07;85.76;99267.31;5039065;28;20127;-74
2023/10/06 04:04:39;;;;;;;27.95;15.93;;;;;;;9.11;85.53;99273.91;5071609;28;20150;-73
2023/10/06 04:07:06;;;;;;;24.65;14.57;;;;;;;9.03;85.12;99258.03;5052636;28;20051;-70
2023/10/06 04:09:33;;;;;;;22.05;14.68;;;;;;;9.18;85.02;99281.97;5034644;28;20071;-74
2023/10/06 04:12:00;;;;;;;28.77;16.92;;;;;;;9.07;85.41;99259.25;5053568;28;20036;-75
2023/10/06 04:14:28;;;;;;;26.60;16.55;;;;;;;9.24;85.41;99276.56;5038242;28;20021;-72
2023/10/06 04:16:53;;;;;;;22.73;11.20;;;;;;;9.01;85.04;99263.59;5038197;28;20093;-72
2023/10/06 04:19:19;;;;;;;14.63;9.30;;;;;;;9.03;84.89;99279.53;5041281;28;20060;-71
2023/10/06 04:21:44;;;;;;;14.55;8.18;;;;;;;8.93;85.27;99271.06;5035567;28;20424;-71
2023/10/06 04:24:10;;;;;;;10.38;8.82;;;;;;;8.81;84.66;99259.28;5070431;28;20466;-70
2023/10/06 04:26:35;;;;;;;10.90;8.40;;;;;;;8.87;85.07;99270.00;5052370;28;20120;-71
2023/10/06 04:29:01;;;;;;;11.95;8.20;;;;;;;8.83;84.72;99259.88;5040912;28;20431;-71
2023/10/06 04:31:26;;;;;;;9.63;7.32;;;;;;;8.72;84.90;99245.22;5055166;28;20043;-72
2023/10/06 04:33:53;;;;;;;10.45;8.10;;;;;;;8.89;84.41;99272.50;5050960;28;20115;-71
2023/10/06 04:36:23;;;;;;;11.88;8.15;;;;;;;8.85;84.62;99265.88;5053662;28;20029;-72
2023/10/06 04:38:48;;;;;;;10.93;8.00;;;;;;;8.82;83.75;99261.75;5071205;28;20403;-72
2023/10/06 04:41:14;;;;;;;12.63;8.23;;;;;;;8.83;84.26;99262.56;5054368;28;20024;-70
2023/10/06 04:43:44;;;;;;;9.93;7.65;;;;;;;8.81;84.10;99264.63;5053613;28;20037;-71
2023/10/06 04:46:10;;;;;;;9.40;7.60;;;;;;;8.68;83.87;99248.53;5052982;28;20068;-70
2023/10/06 04:48:36;;;;;;;12.35;8.65;;;;;;;8.71;83.83;99264.22;5053835;28;20074;-71
2023/10/06 04:51:03;;;;;;;15.40;9.63;;;;;;;8.59;82.83;99244.41;5047895;28;20033;-72
2023/10/06 04:53:29;;;;;;;107.22;20.73;;;;;;;8.65;83.52;99257.84;5050182;28;20032;-70
2023/10/06 04:55:54;;;;;;;28.98;15.40;;;;;;;8.54;83.38;99241.50;5033747;28;20036;-71
2023/10/06 04:58:20;;;;;;;22.77;13.73;;;;;;;8.57;82.87;99249.97;5070331;28;20039;-73
2023/10/06 05:00:53;;;;;;;33.80;16.65;;;;;;;8.55;83.87;99248.50;5053767;28;20043;-72
2023/10/06 05:03:19;;;;;;;33.30;18.75;;;;;;;8.52;83.61;99239.00;5056237;28;20056;-72
2023/10/06 05:05:44;;;;;;;45.13;23.65;;;;;;;8.57;82.71;99241.06;5053133;28;20062;-72
2023/10/06 05:08:09;;;;;;;39.70;23.02;;;;;;;8.52;83.83;99243.59;5036586;28;20041;-74
2023/10/06 05:10:36;;;;;;;32.28;20.27;;;;;;;8.52;83.07;99248.94;5053368;28;20024;-77
2023/10/06 05:13:05;;;;;;;31.73;19.05;;;;;;;8.51;83.32;99241.91;5033676;28;20112;-77
2023/10/06 05:15:31;;;;;;;28.00;16.88;;;;;;;8.40;83.51;99221.06;5032226;28;20024;-75
2023/10/06 05:17:56;;;;;;;28.55;15.93;;;;;;;8.59;83.91;99249.78;5052820;28;20803;-70
2023/10/06 05:20:23;;;;;;;20.48;13.95;;;;;;;8.48;83.35;99237.78;5061973;28;20032;-72
2023/10/06 05:22:50;;;;;;;25.30;15.40;;;;;;;8.48;83.18;99234.25;5052252;28;20480;-71
2023/10/06 05:25:19;;;;;;;31.83;14.60;;;;;;;8.62;83.29;99265.47;5030844;28;20029;-72
2023/10/06 05:27:47;;;;;;;14.02;9.55;;;;;;;8.59;82.99;99265.88;5065158;28;20044;-71
2023/10/06 05:30:13;;;;;;;14.30;8.95;;;;;;;8.41;83.44;99250.38;5035417;28;20029;-72
2023/10/06 05:32:42;;;;;;;19.60;11.60;;;;;;;8.48;83.87;99258.41;5051607;28;20404;-73
2023/10/06 05:35:13;;;;;;;20.15;10.73;;;;;;;8.53;83.87;99278.25;5050841;28;20032;-74
2023/10/06 05:37:40;;;;;;;16.17;10.10;;;;;;;8.45;83.60;99280.31;5040040;28;20040;-73
2023/10/06 05:40:06;;;;;;;13.85;9.93;;;;;;;8.41;83.61;99260.28;5039829;28;20032;-73
2023/10/06 05:42:33;;;;;;;44.47;29.25;;;;;;;8.50;83.41;99283.19;5073447;28;20055;-73
2023/10/06 05:44:59;;;;;;;30.52;17.70;;;;;;;8.54;82.85;99289.84;5040420;28;20023;-74
2023/10/06 05:47:25;;;;;;;15.30;10.45;;;;;;;8.38;82.65;99274.13;5036141;28;20041;-75
2023/10/06 05:49:53;;;;;;;8.93;7.07;;;;;;;8.46;83.40;99298.06;5039038;28;20512;-74
2023/10/06 05:52:20;;;;;;;10.20;7.35;;;;;;;8.37;82.63;99289.38;5053464;28;20043;-74
2023/10/06 05:54:45;;;;;;;8.13;7.22;;;;;;;8.46;83.29;99303.44;5055708;28;20467;-72
2023/10/06 05:57:10;;;;;;;13.20;6.75;;;;;;;8.45;82.81;99301.81;5063759;28;20112;-74
2023/10/06 05:59:38;;;;;;;6.55;5.75;;;;;;;8.39;83.11;99302.59;5074579;28;20108;-73
2023/10/06 06:02:04;;;;;;;9.30;7.28;;;;;;;8.27;82.79;99284.41;5057345;28;20029;-74
2023/10/06 06:04:30;;;;;;;30.65;20.25;;;;;;;8.28;83.42;99296.78;5073517;28;20017;-73
2023/10/06 06:06:56;;;;;;;10.25;9.07;;;;;;;8.18;82.98;99285.59;5074261;28;20503;-72
2023/10/06 06:09:27;;;;;;;7.30;6.10;;;;;;;8.31;83.18;99295.56;5057035;28;20054;-73
2023/10/06 06:11:52;;;;;;;8.73;6.35;;;;;;;8.35;83.10;99307.56;5056343;28;20040;-74
2023/10/06 06:14:21;;;;;;;10.15;7.90;;;;;;;8.33;82.80;99288.94;5073880;28;20021;-74
2023/10/06 06:16:47;;;;;;;18.60;15.05;;;;;;;8.47;82.71;99289.00;5072671;28;20116;-74
2023/10/06 06:19:13;;;;;;;49.05;36.22;;;;;;;8.54;83.06;99300.56;5052426;28;20029;-74
2023/10/06 06:21:38;;;;;;;14.27;11.52;;;;;;;8.51;82.68;99279.50;5050630;28;20412;-74
2023/10/06 06:24:07;;;;;;;21.90;17.48;;;;;;;8.66;82.88;99298.94;5040000;28;20052;-73
2023/10/06 06:26:36;;;;;;;37.08;27.90;;;;;;;8.58;82.83;99291.91;5058007;28;20072;-72
2023/10/06 06:29:02;;;;;;;19.95;15.77;;;;;;;8.71;83.09;99308.03;5040739;28;20020;-74
2023/10/06 06:31:32;;;;;;;22.60;15.60;;;;;;;8.81;82.62;99318.34;5037994;28;20497;-73
2023/10/06 06:33:59;;;;;;;13.93;10.00;;;;;;;8.77;83.45;99291.09;5056342;28;20081;-74
2023/10/06 06:36:31;;;;;;;17.02;11.35;;;;;;;8.95;83.03;99309.28;5054315;28;20033;-71
2023/10/06 06:38:56;;;;;;;17.35;10.82;;;;;;;8.86;83.00;99300.59;5075247;28;20515;-74
2023/10/06 06:41:22;;;;;;;20.20;12.40;;;;;;;9.05;83.79;99315.06;5075222;28;20028;-74
2023/10/06 06:43:47;;;;;;;19.65;11.57;;;;;;;9.04;83.73;99297.28;5055230;28;20099;-74
2023/10/06 06:46:13;;;;;;;17.83;10.90;;;;;;;9.17;83.87;99299.94;5066929;28;20038;-74
2023/10/06 06:48:38;;;;;;;16.90;11.80;;;;;;;9.27;83.83;99303.06;5034886;28;20116;-72
2023/10/06 06:51:04;;;;;;;21.38;12.60;;;;;;;9.32;84.32;99305.94;5052933;28;20476;-74
2023/10/06 06:53:30;;;;;;;21.58;13.13;;;;;;;9.39;84.35;99309.44;5031839;28;20025;-74
2023/10/06 06:55:56;;;;;;;19.02;11.00;;;;;;;9.29;84.66;99284.84;5053251;28;20504;-73
2023/10/06 06:58:21;;;;;;;13.48;8.98;;;;;;;9.43;84.88;99283.78;5053947;28;20037;-74
2023/10/06 07:00:47;;;;;;;15.23;10.30;;;;;;;9.72;84.99;99298.63;5037087;28;20473;-74
2023/10/06 07:03:14;;;;;;;16.58;10.63;;;;;;;9.88;84.58;99311.59;5038688;28;20466;-73
2023/10/06 07:05:40;;;;;;;18.92;11.32;;;;;;;9.94;84.85;99305.34;5053737;28;20032;-75
2023/10/06 07:08:05;;;;;;;21.88;12.50;;;;;;;9.99;84.44;99297.47;5040088;28;20047;-74
2023/10/06 07:10:31;;;;;;;21.17;11.73;;;;;;;10.04;84.92;99311.09;5055567;28;20040;-74
2023/10/06 07:13:00;;;;;;;20.35;11.23;;;;;;;9.96;85.42;99307.84;5052649;28;20029;-75
2023/10/06 07:15:29;;;;;;;23.98;10.55;;;;;;;9.85;85.74;99316.59;5055859;28;20024;-73
2023/10/06 07:17:57;;;;;;;13.10;8.32;;;;;;;9.88;85.76;99316.97;5053229;28;20036;-74
2023/10/06 07:20:24;;;;;;;13.43;8.30;;;;;;;9.98;85.62;99321.91;5026703;28;20027;-74
2023/10/06 07:22:53;;;;;;;16.60;9.27;;;;;;;10.08;85.21;99327.69;5073967;28;20028;-73
2023/10/06 07:25:19;;;;;;;16.75;10.15;;;;;;;10.10;85.61;99341.75;5056027;28;20107;-74
2023/10/06 07:27:49;;;;;;;18.15;10.35;;;;;;;10.07;85.90;99317.94;5055410;28;20508;-74
2023/10/06 07:30:16;;;;;;;13.98;10.05;;;;;;;10.08;85.88;99320.41;5040225;28;20059;-74
2023/10/06 07:32:43;;;;;;;17.60;10.43;;;;;;;10.24;85.69;99343.38;5055483;28;20024;-73
2023/10/06 07:35:13;;;;;;;21.27;10.68;;;;;;;10.25;86.30;99339.63;5055089;28;20512;-74
2023/10/06 07:37:42;;;;;;;18.48;12.13;;;;;;;10.28;85.98;99314.97;5053482;28;20047;-76
2023/10/06 07:40:15;;;;;;;20.02;11.85;;;;;;;10.56;85.94;99330.75;5038238;28;20024;-74
2023/10/06 07:42:46;;;;;;;25.58;13.25;;;;;;;10.73;86.21;99335.44;5039235;28;20043;-74
2023/10/06 07:45:12;;;;;;;31.08;14.35;;;;;;;10.88;86.35;99337.81;5054945;28;20506;-72
2023/10/06 07:47:39;;;;;;;27.25;14.90;;;;;;;11.04;87.11;99339.97;5054543;28;20032;-73
2023/10/06 07:50:05;;;;;;;22.85;14.13;;;;;;;11.06;87.33;99314.44;5034550;28;20033;-75
2023/10/06 07:52:32;;;;;;;25.98;14.05;;;;;;;11.26;87.44;99316.13;5047044;28;20037;-74
2023/10/06 07:54:58;;;;;;;20.88;14.00;;;;;;;11.42;87.92;99320.97;5050828;28;20025;-73
2023/10/06 07:57:23;;;;;;;26.70;15.60;;;;;;;11.54;88.18;99319.19;5054991;28;20146;-74
2023/10/06 07:59:49;;;;;;;28.92;15.13;;;;;;;11.64;88.29;99309.56;5033693;28;20029;-73
2023/10/06 08:02:14;;;;;;;26.90;14.88;;;;;;;11.73;88.28;99320.91;5045863;28;20028;-73
2023/10/06 08:04:40;;;;;;;24.90;14.18;;;;;;;11.70;87.75;99297.88;5071371;28;20048;-72
2023/10/06 08:07:05;;;;;;;24.20;14.35;;;;;;;11.98;87.87;99326.22;5034296;28;20029;-73
2023/10/06 08:09:32;;;;;;;27.33;14.88;;;;;;;12.11;87.62;99329.56;5071510;28;20028;-73
2023/10/06 08:11:58;;;;;;;23.95;14.35;;;;;;;12.17;87.59;99335.94;5071476;28;20107;-73
2023/10/06 08:14:24;;;;;;;31.25;14.10;;;;;;;12.20;87.30;99336.34;5037005;28;20166;-73
2023/10/06 08:16:50;;;;;;;30.13;14.70;;;;;;;12.25;87.27;99328.34;5070825;28;20078;-75
2023/10/06 08:19:16;;;;;;;24.17;13.25;;;;;;;12.38;87.13;99333.59;5036640;28;20107;-73
2023/10/06 08:21:41;;;;;;;23.45;11.85;;;;;;;12.44;86.90;99331.84;5050461;28;20051;-74
2023/10/06 08:24:07;;;;;;;20.52;12.02;;;;;;;12.47;86.29;99326.81;5036294;28;20412;-72
2023/10/06 08:26:36;;;;;;;23.08;12.65;;;;;;;12.57;86.50;99331.69;5052669;28;20036;-74
2023/10/06 08:29:04;;;;;;;23.63;11.90;;;;;;;12.59;85.61;99317.94;5033814;28;20131;-74
2023/10/06 08:31:30;;;;;;;25.42;11.93;;;;;;;12.65;85.68;99317.03;5048052;28;20025;-73
2023/10/06 08:33:57;;;;;;;23.17;12.00;;;;;;;12.79;85.39;99323.91;5053391;28;20034;-73
2023/10/06 08:36:23;;;;;;;21.88;11.52;;;;;;;12.88;85.42;99322.50;5051219;28;20556;-73
2023/10/06 08:38:48;;;;;;;22.88;11.48;;;;;;;12.93;85.02;99315.31;5052967;28;20032;-72
2023/10/06 08:41:15;;;;;;;22.33;11.05;;;;;;;12.94;84.83;99318.84;5053193;28;20020;-74
2023/10/06 08:43:41;;;;;;;26.42;11.00;;;;;;;13.00;84.58;99315.22;5071102;28;20040;-72
2023/10/06 08:46:07;;;;;;;25.92;10.43;;;;;;;13.00;83.95;99309.81;5050082;28;20036;-74
2023/10/06 08:48:35;;;;;;;23.65;9.52;;;;;;;13.05;83.67;99312.63;5051526;28;20037;-74
2023/10/06 08:51:07;;;;;;;21.35;9.98;;;;;;;13.12;83.72;99310.69;5070783;28;20028;-74
2023/10/06 08:53:37;;;;;;;19.80;9.70;;;;;;;13.25;83.21;99318.59;5036080;28;20044;-73
2023/10/06 08:56:03;;;;;;;21.00;9.95;;;;;;;13.34;82.91;99333.44;5047916;28;20033;-74
2023/10/06 08:58:29;;;;;;;18.30;8.32;;;;;;;13.35;82.84;99321.53;5041952;28;20055;-72
2023/10/06 09:00:55;;;;;;;19.77;8.52;;;;;;;13.44;82.42;99327.44;5053082;28;20133;-72
2023/10/06 09:03:21;;;;;;;15.20;7.75;;;;;;;13.59;82.29;99325.91;5033197;28;20139;-73
2023/10/06 09:05:46;;;;;;;15.75;7.43;;;;;;;13.62;81.17;99325.44;5049501;28;20123;-72
2023/10/06 09:08:14;;;;;;;15.98;6.68;;;;;;;13.69;81.32;99320.72;5049442;28;20052;-72
2023/10/06 09:10:48;;;;;;;16.25;6.95;;;;;;;13.78;80.34;99313.88;5071596;28;20046;-73
2023/10/06 09:13:17;;;;;;;14.18;6.20;;;;;;;13.73;80.15;99293.97;5056623;28;20476;-73
2023/10/06 09:15:44;;;;;;;13.38;6.55;;;;;;;14.00;79.81;99316.78;5055396;28;20032;-73
2023/10/06 09:18:20;;;;;;;15.82;7.20;;;;;;;14.13;79.54;99316.50;5051586;28;20043;-74
2023/10/06 09:20:49;;;;;;;14.10;6.25;;;;;;;14.13;79.12;99304.84;5055880;28;20033;-73
2023/10/06 09:23:40;;;;;;;12.95;5.72;;;;;;;14.12;78.64;99281.53;5056907;28;20042;-73
2023/10/06 09:26:07;;;;;;;13.63;5.68;;;;;;;14.32;78.28;99299.06;5057056;28;20044;-73
2023/10/06 09:28:33;;;;;;;12.55;5.32;;;;;;;14.41;77.52;99296.78;5052923;28;20033;-73
2023/10/06 09:31:00;;;;;;;13.63;4.82;;;;;;;14.36;76.63;99280.41;5046648;28;20033;-73
2023/10/06 09:33:42;;;;;;;9.45;5.03;;;;;;;14.47;76.35;99287.66;5073109;28;20013;-73
2023/10/06 09:36:16;;;;;;;12.43;5.80;;;;;;;14.62;76.76;99292.53;5056550;28;20432;-73
2023/10/06 09:38:44;;;;;;;12.65;5.07;;;;;;;14.76;76.31;99294.72;5056114;28;20032;-74
2023/10/06 09:41:11;;;;;;;14.82;5.40;;;;;;;14.81;75.62;99289.38;5074227;28;20028;-73
2023/10/06 09:43:40;;;;;;;15.05;4.70;;;;;;;14.91;75.32;99284.13;5052955;28;20103;-73
2023/10/06 09:46:07;;;;;;;13.13;4.63;;;;;;;14.97;74.87;99283.16;5067223;28;20032;-73
2023/10/06 09:48:36;;;;;;;16.23;5.13;;;;;;;14.96;74.37;99267.94;5039216;28;20064;-73
2023/10/06 09:51:06;;;;;;;11.52;4.22;;;;;;;15.02;73.44;99256.09;5055158;28;20029;-73
2023/10/06 09:53:32;;;;;;;9.30;4.45;;;;;;;14.95;73.27;99244.59;5052797;28;20489;-72
2023/10/06 09:55:58;;;;;;;8.05;4.13;;;;;;;15.01;73.09;99254.44;5035901;28;20066;-72
2023/10/06 09:58:23;;;;;;;13.55;3.95;;;;;;;15.19;73.30;99251.47;5055676;28;20407;-73
2023/10/06 10:00:49;;;;;;;13.73;4.75;;;;;;;15.28;71.91;99253.78;5073778;28;20032;-73
2023/10/06 10:03:15;;;;;;;9.50;4.35;;;;;;;15.40;72.05;99254.50;5052562;28;20029;-73
2023/10/06 10:05:41;;;;;;;9.73;4.22;;;;;;;15.51;71.68;99254.44;5051932;28;20024;-73
2023/10/06 10:08:07;;;;;;;9.35;4.05;;;;;;;15.62;71.63;99245.34;5051774;28;20091;-73
2023/10/06 10:10:34;;;;;;;12.43;4.35;;;;;;;15.72;71.16;99233.81;5051599;28;20025;-73
2023/10/06 10:13:26;;;;;;;9.90;4.15;;;;;;;16.02;70.37;99244.22;5052568;28;20040;-73
2023/10/06 10:16:11;;;;;;;10.02;3.92;;;;;;;16.15;70.07;99233.78;5044789;28;20072;-73
2023/10/06 10:18:44;;;;;;;11.88;4.32;;;;;;;16.39;69.57;99245.19;5073352;28;20044;-73
2023/10/06 10:21:11;;;;;;;8.98;4.15;;;;;;;16.49;69.66;99235.25;5055093;28;20032;-73
2023/10/06 10:23:40;;;;;;;15.93;4.72;;;;;;;16.61;69.29;99237.84;5038044;28;20029;-73
2023/10/06 10:26:18;;;;;;;10.98;4.03;;;;;;;16.66;68.76;99224.28;5055822;28;20036;-73
2023/10/06 10:28:49;;;;;;;8.98;3.72;;;;;;;16.63;68.38;99223.97;5051889;28;20092;-73
2023/10/06 10:31:17;;;;;;;8.95;4.00;;;;;;;16.74;68.08;99231.13;5027637;28;20485;-74
2023/10/06 10:33:44;;;;;;;11.88;4.70;;;;;;;16.88;67.12;99226.91;5070913;28;20021;-73
2023/10/06 10:36:12;;;;;;;11.05;4.80;;;;;;;17.03;66.54;99227.03;5073249;28;20036;-72
2023/10/06 10:38:38;;;;;;;8.10;3.42;;;;;;;16.97;65.84;99219.88;5054991;28;20043;-73
2023/10/06 10:41:08;;;;;;;10.32;3.85;;;;;;;17.02;65.84;99228.09;5073294;28;20037;-73
2023/10/06 10:43:45;;;;;;;10.95;3.90;;;;;;;17.08;64.96;99224.34;5055547;28;20049;-72
2023/10/06 10:46:12;;;;;;;13.10;3.97;;;;;;;16.95;64.27;99212.00;5036730;28;20028;-73
2023/10/06 10:48:47;;;;;;;8.77;3.05;;;;;;;16.84;63.61;99209.47;5055011;28;20112;-73
2023/10/06 10:51:13;;;;;;;10.05;3.72;;;;;;;16.99;62.98;99224.00;5055071;28;20119;-72
2023/10/06 10:53:41;;;;;;;10.95;3.80;;;;;;;17.08;63.36;99205.28;5034770;28;20057;-73
2023/10/06 10:56:29;;;;;;;11.00;3.28;;;;;;;17.15;62.83;99211.34;5052564;28;20068;-73
2023/10/06 10:58:55;;;;;;;7.25;3.35;;;;;;;17.00;62.26;99194.88;5072748;28;20043;-73
2023/10/06 11:01:40;;;;;;;10.60;3.65;;;;;;;17.00;62.01;99208.50;5054962;28;20028;-73
2023/10/06 11:04:35;;;;;;;9.30;3.70;;;;;;;17.02;63.06;99206.31;5072568;28;20043;-74
2023/10/06 11:07:15;;;;;;;10.05;3.60;;;;;;;17.06;63.24;99202.03;5055833;28;20037;-73
2023/10/06 11:09:41;;;;;;;9.77;3.42;;;;;;;17.14;63.40;99196.06;5051514;28;20037;-73
2023/10/06 11:12:15;;;;;;;10.20;3.40;;;;;;;17.31;63.27;99199.47;5066591;28;20036;-72
2023/10/06 11:14:40;;;;;;;8.45;3.33;;;;;;;17.36;63.23;99196.78;5053004;28;20028;-73
2023/10/06 11:17:06;;;;;;;16.40;3.97;;;;;;;17.19;62.48;99174.34;5070502;28;20190;-73
2023/10/06 11:19:33;;;;;;;6.55;3.13;;;;;;;17.23;62.40;99197.22;5044510;28;20074;-73
2023/10/06 11:22:13;;;;;;;10.98;3.45;;;;;;;17.38;62.17;99193.78;5037526;28;20438;-73
2023/10/06 11:24:44;;;;;;;8.52;3.83;;;;;;;17.51;61.91;99182.38;5037771;28;20485;-73
2023/10/06 11:27:30;;;;;;;9.68;3.35;;;;;;;17.67;61.81;99181.41;5054531;28;20119;-73
2023/10/06 11:29:57;;;;;;;7.43;3.22;;;;;;;17.69;61.37;99158.25;5071381;28;20606;-73
2023/10/06 11:32:23;;;;;;;10.02;3.17;;;;;;;17.77;60.64;99160.47;5052981;28;20034;-73